Latest Weather Observations for Melbourne (Olympic Park)

IDV60901

Issued at 7:11 am EDT Thursday 19 January 2017 (issued every 10 minutes, with the page automatically refreshed every 10 minutes)

About weather observations | Map of Melbourne area stations | Latest observations for Melbourne area | Other Formats
Station Details ID: 086338 Name: MELBOURNE (OLYMPIC PARK) Lat: -37.83 Lon: 144.98 Height: 7.53 m
Data from the previous 72 hours. | See also: Recent months at Melbourne (Olympic Park)
Date/Time
EDT
Temp
°C
App
Temp
°C
Dew
Point
°C
Rel
Hum
%
Delta-T
°C
Wind Press
QNH
hPa
Press
MSL
hPa
Rain since
9am
mm
Dir  Spd
km/h
Gust
km/h
Spd
kts
Gust
kts
19/07:00am 12.6 12.7 10.3 86 1.2 CALM 0 0 0 0 1014.7 1014.7 0.0
19/06:30am 11.3 11.2 9.4 88 1.0 CALM 0 4 0 2 1014.4 1014.4 0.0
19/06:00am 11.2 11.1 9.3 88 1.0 CALM 0 0 0 0 1014.3 1014.3 0.0
19/05:30am 11.2 10.9 8.8 85 1.2 CALM 0 0 0 0 1014.6 1014.6 0.0
19/05:00am 11.6 11.5 9.5 87 1.1 CALM 0 0 0 0 1014.5 1014.5 0.0
19/04:30am 11.7 11.5 8.9 83 1.4 CALM 0 0 0 0 1014.7 1014.7 0.0
19/04:00am 12.1 11.8 8.6 79 1.7 CALM 0 0 0 0 1014.9 1014.9 0.0
19/03:30am 12.3 11.9 8.2 76 2.0 CALM 0 0 0 0 1015.0 1015.0 0.0
19/03:00am 13.0 11.8 8.1 72 2.4 S 4 9 2 5 1015.5 1015.5 0.0
19/02:30am 13.2 12.3 7.6 69 2.7 S 2 7 1 4 1015.8 1015.8 0.0
19/02:00am 13.7 11.5 7.7 67 3.0 SSE 9 13 5 7 1016.1 1016.1 0.0
19/01:30am 14.1 12.1 7.2 63 3.4 SE 7 15 4 8 1016.4 1016.4 0.0
19/01:00am 14.3 11.9 6.9 61 3.6 SSE 9 20 5 11 1016.6 1016.6 0.0
19/12:30am 14.5 11.6 6.6 59 3.8 SSE 11 20 6 11 1016.6 1016.6 0.0
19/12:00am 14.8 11.9 6.6 58 4.0 SSE 11 24 6 13 1016.7 1016.7 0.0
 
Date/Time
EDT
Temp
°C
App
Temp
°C
Dew
Point
°C
Rel
Hum
%
Delta-T
°C
Wind Press
QNH
hPa
Press
MSL
hPa
Rain since
9am
mm
Dir  Spd
km/h
Gust
km/h
Spd
kts
Gust
kts
18/11:30pm 15.0 12.0 7.5 61 3.7 SSE 13 22 7 12 1017.1 1017.1 0.0
18/11:00pm 15.2 12.2 7.7 61 3.7 SSE 13 20 7 11 1017.2 1017.2 0.0
18/10:30pm 15.4 12.3 7.4 59 4.0 SSE 13 24 7 13 1017.2 1017.2 0.0
18/10:00pm 15.8 12.9 8.1 60 3.9 SSE 13 26 7 14 1017.2 1017.2 0.0
18/09:30pm 16.2 13.1 7.4 56 4.4 SSE 13 22 7 12 1016.9 1016.9 0.0
18/09:00pm 16.6 12.6 6.7 52 4.9 SSE 17 30 9 16 1016.9 1016.9 0.0
18/08:30pm 17.2 13.5 6.4 49 5.3 SSE 15 28 8 15 1016.8 1016.8 0.0
18/08:00pm 17.9 14.3 6.7 48 5.6 SSE 15 28 8 15 1016.5 1016.5 0.0
18/07:30pm 18.4 14.9 7.2 48 5.6 SSE 15 28 8 15 1016.1 1016.1 0.0
18/07:00pm 18.5 15.1 9.0 54 5.0 S 17 32 9 17 1015.8 1015.8 0.0
18/06:30pm 18.5 14.6 9.3 55 4.8 S 20 35 11 19 1015.9 1015.9 0.0
18/06:00pm 19.0 15.9 8.9 52 5.3 S 15 32 8 17 1015.7 1015.7 0.0
18/05:30pm 18.6 14.6 8.3 51 5.3 S 19 35 10 19 1015.7 1015.7 0.0
18/05:00pm 19.0 15.0 8.9 52 5.3 SSW 20 37 11 20 1015.8 1015.8 0.0
18/04:30pm 19.5 16.3 10.0 54 5.1 S 17 32 9 17 1015.8 1015.8 0.0
18/04:00pm 19.3 15.8 7.1 45 6.2 S 15 32 8 17 1015.8 1015.8 0.0
18/03:30pm 19.2 14.7 7.0 45 6.2 SSW 20 41 11 22 1015.6 1015.6 0.0
18/03:00pm 19.4 15.3 8.7 50 5.6 S 20 37 11 20 1015.6 1015.6 0.0
18/02:30pm 19.3 15.8 8.9 51 5.4 S 17 35 9 19 1015.9 1015.9 0.0
18/02:00pm 19.3 15.3 8.3 49 5.7 S 19 32 10 17 1016.0 1016.0 0.0
18/01:30pm 19.5 15.9 8.5 49 5.7 S 17 30 9 16 1016.2 1016.2 0.0
18/01:00pm 19.4 15.9 8.7 50 5.6 S 17 33 9 18 1015.9 1015.9 0.0
18/12:30pm 19.2 14.9 9.4 53 5.2 SSW 22 39 12 21 1015.6 1015.6 0.0
18/12:00pm 19.0 14.8 11.1 60 4.3 SSW 24 37 13 20 1015.4 1015.4 0.0
18/11:30am 20.0 16.8 10.1 53 5.3 S 17 30 9 16 1015.1 1015.1 0.0
18/11:00am 18.8 15.9 9.6 55 4.9 S 15 30 8 16 1014.8 1014.8 0.0
18/10:30am 19.4 15.9 8.7 50 5.6 S 17 33 9 18 1014.4 1014.4 0.0
18/10:00am 18.1 15.3 10.0 59 4.3 SSW 15 28 8 15 1014.2 1014.2 0.0
18/09:30am 18.1 15.0 8.9 55 4.8 S 15 28 8 15 1014.0 1014.0 0.0
18/09:00am 17.9 14.5 9.0 56 4.6 SSW 17 32 9 17 1013.7 1013.7 0.0
18/08:30am 17.5 14.7 9.9 61 4.0 S 15 28 8 15 1013.3 1013.3 0.0
18/08:00am 17.5 14.4 10.4 63 3.8 SSW 17 33 9 18 1013.2 1013.2 0.0
18/07:30am 16.8 13.9 10.9 68 3.2 S 17 37 9 20 1012.5 1012.5 0.0
18/07:00am 16.0 13.2 12.7 81 1.8 S 19 37 10 20 1012.0 1012.0 0.0
18/06:56am 15.8 13.0 12.7 82 1.7 S 19 37 10 20 1011.9 1011.9 0.0
18/06:37am 16.3 14.2 14.7 90 0.9 SSW 19 33 10 18 1011.3 1011.3 0.0
18/06:30am 16.4 13.9 14.2 87 1.3 SSW 20 33 11 18 1010.7 1010.7 0.0
18/06:00am 17.0 14.9 14.8 87 1.3 SSW 19 32 10 17 1009.9 1009.9 0.0
18/05:30am 18.3 16.9 14.4 78 2.2 S 15 33 8 18 1009.6 1009.6 0.0
18/05:00am 18.2 16.6 14.9 81 1.9 S 17 32 9 17 1008.8 1008.8 0.0
18/04:30am 19.0 17.9 15.3 79 2.2 S 15 24 8 13 1008.4 1008.4 0.0
18/04:00am 19.3 18.9 15.2 77 2.4 S 11 15 6 8 1008.6 1008.6 0.0
18/03:30am 19.9 20.8 16.2 79 2.2 S 6 13 3 7 1009.1 1009.1 0.0
18/03:00am 20.0 20.7 16.2 79 2.3 SSW 7 13 4 7 1009.4 1009.4 0.0
18/02:30am 20.0 20.9 16.6 81 2.1 SSW 7 11 4 6 1009.8 1009.8 0.0
18/02:00am 20.3 20.8 16.5 79 2.3 SSW 9 20 5 11 1010.1 1010.1 0.0
18/01:30am 20.2 21.7 15.8 76 2.6 SW 2 9 1 5 1009.7 1009.7 0.0
18/01:00am 20.3 22.3 15.9 76 2.6 CALM 0 0 0 0 1009.7 1009.7 0.0
18/12:30am 20.5 22.3 15.5 73 3.0 CALM 0 0 0 0 1010.3 1010.3 0.0
18/12:00am 20.8 21.1 15.1 70 3.4 SSW 7 11 4 6 1010.6 1010.6 0.0
 
Date/Time
EDT
Temp
°C
App
Temp
°C
Dew
Point
°C
Rel
Hum
%
Delta-T
°C
Wind Press
QNH
hPa
Press
MSL
hPa
Rain since
9am
mm
Dir  Spd
km/h
Gust
km/h
Spd
kts
Gust
kts
17/11:30pm 21.1 20.6 15.0 68 3.6 SSW 11 17 6 9 1010.7 1010.7 0.0
17/11:00pm 21.4 20.7 15.5 69 3.5 SSW 13 22 7 12 1010.3 1010.3 0.0
17/10:30pm 21.9 20.5 14.5 63 4.3 SSW 15 30 8 16 1009.8 1009.8 0.0
17/10:00pm 23.2 20.8 12.5 51 6.1 SSW 17 33 9 18 1009.4 1009.4 0.0
17/09:30pm 24.0 22.7 13.8 53 6.0 SSW 13 22 7 12 1008.5 1008.5 0.0
17/09:00pm 23.8 22.3 14.2 55 5.7 SSW 15 28 8 15 1007.5 1007.5 0.0
17/08:30pm 23.9 23.6 15.4 59 5.1 SW 11 20 6 11 1006.9 1006.9 0.0
17/08:00pm 24.2 23.4 15.1 56 5.5 SW 13 26 7 14 1005.6 1005.6 0.0
17/07:30pm 25.9 25.5 15.3 52 6.4 SSW 11 17 6 9 1004.6 1004.6 0.0
17/07:00pm 28.2 27.9 15.5 46 7.8 SSW 11 20 6 11 1004.1 1004.1 0.0
17/06:30pm 32.7 31.4 11.3 27 12.5 S 9 20 5 11 1003.9 1003.9 0.0
17/06:00pm 32.4 30.1 10.4 26 12.7 S 13 24 7 13 1003.9 1003.9 0.0
17/05:30pm 33.7 31.5 10.9 25 13.3 S 13 24 7 13 1004.0 1004.0 0.0
17/05:03pm 35.2 31.7 7.3 18 15.5 S 15 37 8 20 1004.0 1004.0 0.0
17/05:00pm 37.4 34.7 7.3 16 16.9 SSE 11 19 6 10 1004.0 1004.0 0.0
17/04:30pm 36.7 35.0 7.7 17 16.3 S 6 13 3 7 1004.4 1004.4 0.0
17/04:00pm 36.3 34.2 6.5 16 16.5 SSE 7 13 4 7 1005.0 1005.0 0.0
17/03:30pm 35.2 32.5 7.3 18 15.5 S 11 19 6 10 1005.6 1005.6 0.0
17/03:00pm 34.5 32.6 7.5 19 15.0 S 7 15 4 8 1006.2 1006.2 0.0
17/02:30pm 34.3 32.0 7.4 19 14.9 S 9 17 5 9 1006.3 1006.3 0.0
17/02:00pm 33.1 30.3 7.1 20 14.3 SSW 11 20 6 11 1006.8 1006.8 0.0
17/01:30pm 32.2 29.9 9.1 24 13.0 SSW 11 24 6 13 1007.4 1007.4 0.0
17/01:00pm 29.9 27.9 12.8 35 10.1 SSW 15 24 8 13 1007.5 1007.5 0.0
17/12:30pm 30.9 29.6 13.7 35 10.3 SSW 13 26 7 14 1007.3 1007.3 0.0
17/12:00pm 35.4 31.4 6.6 17 15.9 NNW 17 26 9 14 1007.0 1007.0 0.0
17/11:30am 34.6 30.1 6.8 18 15.3 NNW 20 33 11 18 1007.3 1007.3 0.0
17/11:00am 33.2 28.9 7.2 20 14.3 NNW 19 26 10 14 1007.8 1007.8 0.0
17/10:30am 31.5 28.8 9.1 25 12.6 NNW 13 24 7 13 1008.1 1008.1 0.0
17/10:00am 29.8 28.0 9.3 28 11.5 N 9 19 5 10 1008.3 1008.3 0.0
17/09:30am 27.1 28.4 14.1 44 7.8 CALM 0 0 0 0 1008.8 1008.8 0.0
17/09:00am 25.4 25.1 15.4 54 6.1 S 11 20 6 11 1009.5 1009.5 0.0
17/08:30am 25.4 26.5 13.6 48 6.9 CALM 0 0 0 0 1009.1 1009.1 0.0
17/08:00am 25.0 26.1 13.5 48 6.7 CALM 0 4 0 2 1009.2 1009.2 0.0
17/07:30am 23.2 25.0 15.5 62 4.6 CALM 0 0 0 0 1009.1 1009.1 0.0
17/07:00am 22.6 23.2 14.2 59 4.9 SSW 4 11 2 6 1008.9 1008.9 0.0
17/06:30am 23.3 22.8 12.0 49 6.4 SSW 6 9 3 5 1008.3 1008.3 0.0
17/06:00am 24.6 22.7 7.7 34 8.9 NNW 7 11 4 6 1007.9 1007.9 0.0
17/05:30am 24.9 21.9 7.5 33 9.2 N 13 17 7 9 1007.4 1007.4 0.0
17/05:00am 24.8 21.8 7.9 34 9.0 N 13 19 7 10 1007.1 1007.1 0.0
17/04:30am 25.4 22.8 9.3 36 8.8 N 13 19 7 10 1007.2 1007.2 0.0
17/04:00am 22.6 21.7 11.4 49 6.3 NNE 7 11 4 6 1007.2 1007.2 0.0
17/03:30am 22.7 21.6 12.0 50 6.0 NNE 9 11 5 6 1007.4 1007.4 0.0
17/03:00am 22.2 21.5 13.3 57 5.1 NNE 9 11 5 6 1007.6 1007.6 0.0
17/02:30am 22.2 22.2 14.1 60 4.7 NNE 7 11 4 6 1007.8 1007.8 0.0
17/02:00am 22.6 22.6 14.2 59 4.9 NNE 7 11 4 6 1007.9 1007.9 0.0
17/01:30am 22.8 23.1 15.1 62 4.6 N 7 11 4 6 1008.4 1008.4 0.0
17/01:00am 20.7 23.0 16.7 78 2.4 CALM 0 0 0 0 1009.0 1009.0 0.0
17/12:30am 21.6 23.7 16.3 72 3.2 CALM 0 0 0 0 1009.3 1009.3 0.0
17/12:00am 22.5 24.2 16.1 67 3.9 WNW 2 11 1 6 1009.5 1009.5 0.0
 
Date/Time
EDT
Temp
°C
App
Temp
°C
Dew
Point
°C
Rel
Hum
%
Delta-T
°C
Wind Press
QNH
hPa
Press
MSL
hPa
Rain since
9am
mm
Dir  Spd
km/h
Gust
km/h
Spd
kts
Gust
kts
16/11:30pm 23.0 24.9 15.8 64 4.3 CALM 0 0 0 0 1009.8 1009.8 0.0
16/11:00pm 23.8 24.0 15.8 61 4.8 SSW 9 19 5 10 1009.9 1009.9 0.0
16/10:30pm 23.1 24.8 15.2 61 4.7 CALM 0 0 0 0 1009.6 1009.6 0.0
16/10:00pm 24.8 26.2 15.4 56 5.7 E 2 9 1 5 1009.5 1009.5 0.0
16/09:30pm 25.7 27.3 14.8 51 6.5 CALM 0 6 0 3 1009.7 1009.7 0.0
16/09:00pm 27.5 27.5 12.3 39 8.8 SE 4 9 2 5 1009.6 1009.6 0.0
16/08:30pm 28.2 28.2 12.5 37 9.2 S 4 13 2 7 1009.7 1009.7 0.0
16/08:00pm 28.7 28.6 13.8 40 8.9 S 7 15 4 8 1009.6 1009.6 0.0
16/07:30pm 27.4 28.6 13.7 43 8.1 CALM 0 6 0 3 1009.8 1009.8 0.0
16/07:00pm 27.6 27.3 12.8 40 8.7 W 6 11 3 6 1009.4 1009.4 0.0
16/06:30pm 31.4 31.1 12.7 32 11.1 SW 6 13 3 7 1009.2 1009.2 0.0
16/06:00pm 31.5 31.4 13.3 33 10.9 WSW 6 11 3 6 1009.2 1009.2 0.0
16/05:30pm 32.0 31.5 12.8 31 11.4 SW 7 13 4 7 1009.6 1009.6 0.0
16/05:00pm 31.7 31.8 14.4 35 10.6 SW 7 13 4 7 1009.8 1009.8 0.0
16/04:30pm 30.2 29.7 13.9 37 9.8 SSW 9 17 5 9 1010.1 1010.1 0.0
16/04:00pm 28.8 27.3 13.1 38 9.3 SW 13 19 7 10 1010.7 1010.7 0.0
16/03:30pm 30.1 30.3 14.6 39 9.4 SW 7 13 4 7 1011.0 1011.0 0.0
16/03:00pm 30.6 30.3 13.4 35 10.3 SSW 7 15 4 8 1011.4 1011.4 0.0
16/02:30pm 29.8 28.7 11.8 33 10.5 SSW 9 17 5 9 1011.9 1011.9 0.0
16/02:00pm 29.0 28.1 13.6 38 9.2 S 11 17 6 9 1012.5 1012.5 0.0
16/01:30pm 26.8 26.0 12.8 42 8.2 S 9 13 5 7 1013.2 1013.2 0.0
16/01:00pm 26.6 25.9 11.5 39 8.6 NNE 6 13 3 7 1013.6 1013.6 0.0
16/12:30pm 25.6 24.6 11.0 40 8.2 ENE 7 15 4 8 1013.9 1013.9 0.0
16/12:00pm 24.2 23.3 10.5 42 7.6 S 6 11 3 6 1014.3 1014.3 0.0
16/11:30am 22.8 22.5 11.5 49 6.3 NNE 4 9 2 5 1014.9 1014.9 0.0
16/11:00am 21.2 21.5 12.1 56 5.1 WSW 2 9 1 5 1015.4 1015.4 0.0
16/10:30am 19.8 19.0 11.6 59 4.5 NNE 7 13 4 7 1015.6 1015.6 0.0
16/10:00am 18.8 17.5 11.1 61 4.2 ENE 9 15 5 8 1015.6 1015.6 0.0
16/09:30am 17.5 16.0 10.6 64 3.7 NE 9 17 5 9 1015.9 1015.9 0.0
16/09:00am 16.5 15.1 11.0 70 2.9 N 9 13 5 7 1016.3 1016.3 0.0
16/08:30am 15.8 14.4 11.0 73 2.6 NNE 9 13 5 7 1016.4 1016.4 0.0
16/08:00am 14.6 13.2 10.8 78 2.0 NNE 9 13 5 7 1016.4 1016.4 0.0
16/07:30am 13.6 12.7 10.6 82 1.6 NNE 6 11 3 6 1016.3 1016.3 0.0

Latest Capital City Observations: Canberra | Sydney | Melbourne | Brisbane | Adelaide | Perth | Hobart | Darwin

Other Formats:

Comma delimited format used in spreadsheet applications
http://www.bom.gov.au/fwo/IDV60901/IDV60901.95936.axf

JavaScript Object Notation format (JSON) in row-major order
http://www.bom.gov.au/fwo/IDV60901/IDV60901.95936.json